createdAt,value
2018-01-01T00:02:02.383Z,10.47
2018-01-01T00:04:28.905Z,10.27
2018-01-01T00:06:55.249Z,9.40
2018-01-01T00:09:21.678Z,9.60
2018-01-01T00:11:48.116Z,9.67
2018-01-01T00:14:15.189Z,9.60
2018-01-01T00:16:41.598Z,8.00
2018-01-01T00:19:07.975Z,6.70
2018-01-01T00:21:34.323Z,8.20
2018-01-01T00:24:00.728Z,8.23
2018-01-01T00:26:27.814Z,9.67
2018-01-01T00:28:54.222Z,9.90
2018-01-01T00:31:20.557Z,8.90
2018-01-01T00:33:47.772Z,9.90
2018-01-01T00:36:14.168Z,11.80
2018-01-01T00:38:41.327Z,10.90
2018-01-01T00:41:09.154Z,9.50
2018-01-01T00:43:35.643Z,6.07
2018-01-01T00:46:02.035Z,6.83
2018-01-01T00:48:29.116Z,5.30
2018-01-01T00:50:55.503Z,5.70
2018-01-01T00:53:22.623Z,3.90
2018-01-01T00:55:48.958Z,4.13
2018-01-01T00:58:15.463Z,3.40
2018-01-01T01:00:42.579Z,3.73
2018-01-01T01:03:08.947Z,3.10
2018-01-01T01:05:36.079Z,3.13
2018-01-01T01:08:02.748Z,2.97
2018-01-01T01:10:29.188Z,2.20
2018-01-01T01:12:55.541Z,2.57
2018-01-01T01:15:21.929Z,2.83
2018-01-01T01:17:48.295Z,1.33
2018-01-01T01:20:14.633Z,1.27
2018-01-01T01:22:40.967Z,2.10
2018-01-01T01:25:08.040Z,1.80
2018-01-01T01:27:34.393Z,3.50
2018-01-01T01:30:00.740Z,2.07
2018-01-01T01:32:27.131Z,1.90
2018-01-01T01:34:53.463Z,1.50
2018-01-01T01:37:20.010Z,1.70
2018-01-01T01:39:46.335Z,1.60
2018-01-01T01:42:14.192Z,1.47
2018-01-01T01:44:40.594Z,1.77
2018-01-01T01:47:13.159Z,2.97
2018-01-01T01:49:39.524Z,1.47
2018-01-01T01:52:06.284Z,1.13
2018-01-01T01:54:32.636Z,2.17
2018-01-01T01:56:59.028Z,1.77
2018-01-01T01:59:25.412Z,1.90
2018-01-01T02:01:52.546Z,2.10
2018-01-01T02:04:18.955Z,1.90
2018-01-01T02:06:45.469Z,1.27
2018-01-01T02:09:12.592Z,1.53
2018-01-01T02:11:38.960Z,1.73
2018-01-01T02:14:06.075Z,1.70
2018-01-01T02:16:32.468Z,1.10
2018-01-01T02:18:58.863Z,1.20
2018-01-01T02:21:25.248Z,1.50
2018-01-01T02:23:52.422Z,2.10
2018-01-01T02:26:19.532Z,1.07
2018-01-01T02:28:45.896Z,1.23
2018-01-01T02:31:12.396Z,1.27
2018-01-01T02:33:38.785Z,2.13
2018-01-01T02:36:05.926Z,1.50
2018-01-01T02:38:32.420Z,3.60
2018-01-01T02:40:59.571Z,1.80
2018-01-01T02:43:25.988Z,1.50
2018-01-01T02:45:52.371Z,2.27
2018-01-01T02:48:19.544Z,1.80
2018-01-01T02:50:45.921Z,1.70
2018-01-01T02:53:12.276Z,1.33
2018-01-01T02:55:38.640Z,2.00
2018-01-01T02:58:05.672Z,1.60
2018-01-01T03:00:32.288Z,1.60
2018-01-01T03:02:58.695Z,2.40
2018-01-01T03:05:26.604Z,1.73
2018-01-01T03:07:53.760Z,1.50
2018-01-01T03:10:20.231Z,2.37
2018-01-01T03:12:46.621Z,1.23
2018-01-01T03:15:13.854Z,1.27
2018-01-01T03:17:40.247Z,1.07
2018-01-01T03:20:07.502Z,1.50
2018-01-01T03:22:33.904Z,1.23
2018-01-01T03:25:00.401Z,1.10
2018-01-01T03:27:27.537Z,1.90
2018-01-01T03:29:53.979Z,1.57
2018-01-01T03:32:20.458Z,1.43
2018-01-01T03:34:46.858Z,0.90
2018-01-01T03:37:13.183Z,1.23
2018-01-01T03:39:39.523Z,0.97
2018-01-01T03:42:06.598Z,1.30
2018-01-01T03:44:33.732Z,1.00
2018-01-01T03:47:00.074Z,0.77
2018-01-01T03:49:27.151Z,1.13
2018-01-01T03:51:53.554Z,1.50
2018-01-01T03:54:19.863Z,0.90
2018-01-01T03:56:46.207Z,0.83
2018-01-01T03:59:12.548Z,1.10
2018-01-01T04:01:38.894Z,0.80
2018-01-01T04:04:05.857Z,0.73
2018-01-01T04:06:32.252Z,0.90
2018-01-01T04:08:58.655Z,1.27
2018-01-01T04:11:26.469Z,0.80
2018-01-01T04:13:53.584Z,0.70
2018-01-01T04:16:20.024Z,0.60
2018-01-01T04:18:46.439Z,1.10
2018-01-01T04:21:12.785Z,1.07
2018-01-01T04:23:39.175Z,1.27
2018-01-01T04:26:06.193Z,0.93
2018-01-01T04:28:32.623Z,0.60
2018-01-01T04:30:58.992Z,1.00
2018-01-01T04:33:25.332Z,1.00
2018-01-01T04:35:51.740Z,1.23
2018-01-01T04:38:18.804Z,0.70
2018-01-01T04:40:45.210Z,1.27
2018-01-01T04:43:13.036Z,1.40
2018-01-01T04:45:39.512Z,1.73
2018-01-01T04:48:06.450Z,0.90
2018-01-01T04:50:32.817Z,1.00
2018-01-01T04:52:59.159Z,2.43
2018-01-01T04:55:25.536Z,1.30
2018-01-01T04:57:52.620Z,1.00
2018-01-01T05:00:19.050Z,0.80
2018-01-01T05:02:46.117Z,0.83
2018-01-01T05:05:12.521Z,1.10
2018-01-01T05:07:39.069Z,1.03
2018-01-01T05:10:07.220Z,0.80
2018-01-01T05:12:33.680Z,1.00
2018-01-01T05:15:00.012Z,0.83
2018-01-01T05:17:26.365Z,0.70
2018-01-01T05:19:54.202Z,0.97
2018-01-01T05:22:20.600Z,0.90
2018-01-01T05:24:46.974Z,0.70
2018-01-01T05:27:14.093Z,0.70
2018-01-01T05:29:40.546Z,0.80
2018-01-01T05:32:07.379Z,0.90
2018-01-01T05:34:33.892Z,0.80
2018-01-01T05:37:00.297Z,1.03
2018-01-01T05:39:26.675Z,0.50
2018-01-01T05:41:53.819Z,0.70
2018-01-01T05:44:21.668Z,0.70
2018-01-01T05:46:48.024Z,2.00
2018-01-01T05:49:14.396Z,0.70
2018-01-01T05:51:41.716Z,0.70
2018-01-01T05:54:08.868Z,0.50
2018-01-01T05:56:35.260Z,0.60
2018-01-01T05:59:01.829Z,0.70
2018-01-01T06:01:28.971Z,0.70
2018-01-01T06:03:56.086Z,0.60
2018-01-01T06:06:22.511Z,0.90
2018-01-01T06:08:48.913Z,0.67
2018-01-01T06:11:16.028Z,0.60
2018-01-01T06:13:43.395Z,1.07
2018-01-01T06:16:09.868Z,0.60
2018-01-01T06:18:37.103Z,0.60
2018-01-01T06:21:04.986Z,0.50
2018-01-01T06:23:32.119Z,1.00
2018-01-01T06:25:59.212Z,0.80
2018-01-01T06:28:25.572Z,0.80
2018-01-01T06:30:52.680Z,1.40
2018-01-01T06:33:19.810Z,1.27
2018-01-01T06:35:46.166Z,0.90
2018-01-01T06:38:13.316Z,0.90
2018-01-01T06:40:39.748Z,1.80
2018-01-01T06:43:06.754Z,0.70
2018-01-01T06:45:33.129Z,0.70
2018-01-01T06:47:59.529Z,0.60
2018-01-01T06:50:25.896Z,1.10
2018-01-01T06:52:52.230Z,0.97
2018-01-01T06:55:19.356Z,1.40
2018-01-01T06:57:45.727Z,2.60
2018-01-01T07:00:12.823Z,1.83
2018-01-01T07:02:39.381Z,1.13
2018-01-01T07:05:06.151Z,1.57
2018-01-01T07:07:32.531Z,1.27
2018-01-01T07:09:59.860Z,1.63
2018-01-01T07:12:27.204Z,1.00
2018-01-01T07:14:53.609Z,0.93
2018-01-01T07:17:20.189Z,1.30
2018-01-01T07:19:47.376Z,1.03
2018-01-01T07:22:16.592Z,1.13
2018-01-01T07:24:44.020Z,0.97
2018-01-01T07:27:10.444Z,0.90
2018-01-01T07:29:37.858Z,1.40
2018-01-01T07:32:04.865Z,1.63
2018-01-01T07:34:31.387Z,1.00
2018-01-01T07:36:59.372Z,1.47
2018-01-01T07:39:26.617Z,0.80
2018-01-01T07:41:53.218Z,1.00
2018-01-01T07:44:22.285Z,1.40
2018-01-01T07:46:51.111Z,0.87
2018-01-01T07:49:18.109Z,1.57
2018-01-01T07:51:45.475Z,1.20
2018-01-01T07:54:13.225Z,1.00
2018-01-01T07:56:39.894Z,1.30
2018-01-01T07:59:06.726Z,1.37
2018-01-01T08:01:33.874Z,1.10
2018-01-01T08:04:01.022Z,0.97
2018-01-01T08:06:28.689Z,1.60
2018-01-01T08:08:55.073Z,1.00
2018-01-01T08:11:21.692Z,1.37
2018-01-01T08:13:48.365Z,1.87
2018-01-01T08:16:14.768Z,1.00
2018-01-01T08:18:41.244Z,0.80
2018-01-01T08:21:07.709Z,0.73
2018-01-01T08:23:34.981Z,0.83
2018-01-01T08:26:02.113Z,0.80
2018-01-01T08:28:28.580Z,1.47
2018-01-01T08:30:55.051Z,0.57
2018-01-01T08:33:21.488Z,0.60
2018-01-01T08:35:48.689Z,0.60
2018-01-01T08:38:16.189Z,0.60
2018-01-01T08:40:42.801Z,0.73
2018-01-01T08:43:10.007Z,0.70
2018-01-01T08:45:36.425Z,0.50
2018-01-01T08:48:03.973Z,0.77
2018-01-01T08:50:31.461Z,0.80
2018-01-01T08:52:57.901Z,0.90
2018-01-01T08:55:25.120Z,0.90
2018-01-01T08:57:51.649Z,0.90
2018-01-01T09:00:18.089Z,0.83
2018-01-01T09:02:44.660Z,0.80
2018-01-01T09:05:11.352Z,0.70
2018-01-01T09:07:37.743Z,1.03
2018-01-01T09:10:04.772Z,0.60
2018-01-01T09:12:34.860Z,0.70
2018-01-01T09:15:01.328Z,0.70
2018-01-01T09:17:34.771Z,2.50
2018-01-01T09:20:01.226Z,0.70
2018-01-01T09:22:28.406Z,0.90
2018-01-01T09:24:54.883Z,1.23
2018-01-01T09:27:21.373Z,1.10
2018-01-01T09:29:47.964Z,0.70
2018-01-01T09:32:14.438Z,0.60
2018-01-01T09:34:40.872Z,0.80
2018-01-01T09:37:07.532Z,1.23
2018-01-01T09:39:34.547Z,1.10
2018-01-01T09:42:00.969Z,1.00
2018-01-01T09:44:27.660Z,1.40
2018-01-01T09:46:54.355Z,1.80
2018-01-01T09:49:21.762Z,1.80
2018-01-01T09:51:48.273Z,1.00
2018-01-01T09:54:15.971Z,1.20
2018-01-01T09:56:43.092Z,1.50
2018-01-01T09:59:09.528Z,1.47
2018-01-01T10:01:36.106Z,1.43
2018-01-01T10:04:04.096Z,1.40
2018-01-01T10:06:30.750Z,3.53
2018-01-01T10:08:58.500Z,1.37
2018-01-01T10:11:25.094Z,1.00
2018-01-01T10:13:51.600Z,0.80
2018-01-01T10:16:18.183Z,1.30
2018-01-01T10:18:44.617Z,1.83
2018-01-01T10:21:11.835Z,1.53
2018-01-01T10:23:38.276Z,0.90
2018-01-01T10:26:05.297Z,1.80
2018-01-01T10:28:31.779Z,1.33
2018-01-01T10:30:58.261Z,1.70
2018-01-01T10:33:24.726Z,1.87
2018-01-01T10:35:51.220Z,1.07
2018-01-01T10:38:18.384Z,1.20
2018-01-01T10:40:45.641Z,2.43
2018-01-01T10:43:14.079Z,1.30
2018-01-01T10:45:41.777Z,1.50
2018-01-01T10:48:08.223Z,1.83
2018-01-01T10:50:37.172Z,1.83
2018-01-01T10:53:04.577Z,1.60
2018-01-01T10:55:38.717Z,1.20
2018-01-01T10:58:06.058Z,2.40
2018-01-01T11:00:32.553Z,1.60
2018-01-01T11:02:58.980Z,1.77
2018-01-01T11:05:28.501Z,1.97
2018-01-01T11:07:55.029Z,2.20
2018-01-01T11:10:22.292Z,1.90
2018-01-01T11:12:48.769Z,1.60
2018-01-01T11:15:16.054Z,1.20
2018-01-01T11:17:45.423Z,1.93
2018-01-01T11:20:12.231Z,1.33
2018-01-01T11:22:38.792Z,2.20
2018-01-01T11:25:06.064Z,1.60
2018-01-01T11:27:33.446Z,2.80
2018-01-01T11:30:00.600Z,2.07
2018-01-01T11:32:31.558Z,2.07
2018-01-01T11:34:58.231Z,2.23
2018-01-01T11:37:24.751Z,1.73
2018-01-01T11:39:58.112Z,2.10
2018-01-01T11:42:24.782Z,2.40
2018-01-01T11:44:52.704Z,1.53
2018-01-01T11:47:19.257Z,3.07
2018-01-01T11:49:47.759Z,1.73
2018-01-01T11:52:14.212Z,2.63
2018-01-01T11:54:40.698Z,2.27
2018-01-01T11:57:08.086Z,2.13
2018-01-01T11:59:34.565Z,2.20
2018-01-01T12:02:01.076Z,1.70
2018-01-01T12:04:29.718Z,2.00
2018-01-01T12:06:56.517Z,1.70
2018-01-01T12:09:23.901Z,2.40
2018-01-01T12:11:50.333Z,2.77
2018-01-01T12:14:16.804Z,2.63
2018-01-01T12:16:43.353Z,2.23
2018-01-01T12:19:09.809Z,2.87
2018-01-01T12:21:36.238Z,3.17
2018-01-01T12:24:03.143Z,2.30
2018-01-01T12:26:29.761Z,3.57
2018-01-01T12:28:56.270Z,2.93
2018-01-01T12:31:22.706Z,2.30
2018-01-01T12:33:49.241Z,2.77
2018-01-01T12:36:15.667Z,3.10
2018-01-01T12:38:42.178Z,5.60
2018-01-01T12:41:08.750Z,3.10
2018-01-01T12:43:35.307Z,2.37
2018-01-01T12:46:02.948Z,2.30
2018-01-01T12:48:29.436Z,2.50
2018-01-01T12:50:56.632Z,2.10
2018-01-01T12:53:24.114Z,2.40
2018-01-01T12:55:50.606Z,1.87
2018-01-01T12:58:17.025Z,2.00
2018-01-01T13:00:44.251Z,2.37
2018-01-01T13:03:11.588Z,3.40
2018-01-01T13:05:38.670Z,2.40
2018-01-01T13:08:08.911Z,2.60
2018-01-01T13:10:37.414Z,2.30
2018-01-01T13:13:04.828Z,2.67
2018-01-01T13:15:31.312Z,2.03
2018-01-01T13:17:58.509Z,3.20
2018-01-01T13:20:24.952Z,2.00
2018-01-01T13:22:51.449Z,2.50
2018-01-01T13:25:17.928Z,2.40
2018-01-01T13:27:44.349Z,2.40
2018-01-01T13:30:10.864Z,2.83
2018-01-01T13:32:43.463Z,2.13
2018-01-01T13:35:10.332Z,2.47
2018-01-01T13:37:36.778Z,1.93
2018-01-01T13:40:04.019Z,2.20
2018-01-01T13:42:30.449Z,3.30
2018-01-01T13:44:56.868Z,2.43
2018-01-01T13:47:24.265Z,2.93
2018-01-01T13:49:51.507Z,2.53
2018-01-01T13:52:17.977Z,3.00
2018-01-01T13:54:44.427Z,2.97
2018-01-01T13:57:10.862Z,2.97
2018-01-01T13:59:37.549Z,3.00
2018-01-01T14:02:04.710Z,2.63
2018-01-01T14:04:31.212Z,2.40
2018-01-01T14:06:58.429Z,2.30
2018-01-01T14:09:25.845Z,3.00
2018-01-01T14:11:52.353Z,2.80
2018-01-01T14:14:18.847Z,1.90
2018-01-01T14:16:45.517Z,2.50
2018-01-01T14:19:12.529Z,2.90
2018-01-01T14:21:39.722Z,2.03
2018-01-01T14:24:10.064Z,2.50
2018-01-01T14:26:37.222Z,1.73
2018-01-01T14:29:04.403Z,1.77
2018-01-01T14:31:30.918Z,2.13
2018-01-01T14:33:57.711Z,2.10
2018-01-01T14:36:24.193Z,2.33
2018-01-01T14:38:50.684Z,1.93
2018-01-01T14:41:17.130Z,1.80
2018-01-01T14:43:43.897Z,3.07
2018-01-01T14:46:10.410Z,3.63
2018-01-01T14:48:37.329Z,4.43
2018-01-01T14:51:04.216Z,2.60
2018-01-01T14:53:30.751Z,2.60
2018-01-01T14:55:57.986Z,2.70
2018-01-01T14:58:24.418Z,2.27
2018-01-01T15:00:51.571Z,2.77
2018-01-01T15:03:18.066Z,3.30
2018-01-01T15:05:44.501Z,3.90
2018-01-01T15:08:10.978Z,2.50
2018-01-01T15:10:41.841Z,2.50
2018-01-01T15:13:09.852Z,3.30
2018-01-01T15:15:37.278Z,2.50
2018-01-01T15:18:04.352Z,2.30
2018-01-01T15:20:30.894Z,3.40
2018-01-01T15:22:57.383Z,2.53
2018-01-01T15:25:23.982Z,2.50
2018-01-01T15:27:50.500Z,2.40
2018-01-01T15:30:16.965Z,2.70
2018-01-01T15:32:43.622Z,3.70
2018-01-01T15:35:10.084Z,2.23
2018-01-01T15:37:36.628Z,2.60
2018-01-01T15:40:03.523Z,1.83
2018-01-01T15:42:30.865Z,2.10
2018-01-01T15:44:58.280Z,2.80
2018-01-01T15:47:24.704Z,3.07
2018-01-01T15:49:51.218Z,2.13
2018-01-01T15:52:20.235Z,2.70
2018-01-01T15:54:50.380Z,2.70
2018-01-01T15:57:16.934Z,2.37
2018-01-01T15:59:44.111Z,2.70
2018-01-01T16:02:10.559Z,3.43
2018-01-01T16:04:37.185Z,2.03
2018-01-01T16:07:04.060Z,2.03
2018-01-01T16:09:30.537Z,2.03
2018-01-01T16:11:57.305Z,1.90
2018-01-01T16:14:23.778Z,2.70
2018-01-01T16:16:50.152Z,2.07
2018-01-01T16:19:16.607Z,2.40
2018-01-01T16:21:43.069Z,2.33
2018-01-01T16:24:09.535Z,1.50
2018-01-01T16:26:35.947Z,2.20
2018-01-01T16:29:02.614Z,2.23
2018-01-01T16:31:29.045Z,2.43
2018-01-01T16:33:56.272Z,2.10
2018-01-01T16:36:23.408Z,1.50
2018-01-01T16:38:49.806Z,1.40
2018-01-01T16:41:16.200Z,1.57
2018-01-01T16:43:42.624Z,2.40
2018-01-01T16:46:09.056Z,2.47
2018-01-01T16:48:35.436Z,2.00
2018-01-01T16:51:02.158Z,2.33
2018-01-01T16:53:29.479Z,2.07
2018-01-01T16:55:55.865Z,2.00
2018-01-01T16:58:22.299Z,2.00
2018-01-01T17:00:48.821Z,1.83
2018-01-01T17:03:15.978Z,1.43
2018-01-01T17:05:43.592Z,1.97
2018-01-01T17:08:10.023Z,2.20
2018-01-01T17:10:36.387Z,2.73
2018-01-01T17:13:02.819Z,1.93
2018-01-01T17:15:29.456Z,3.10
2018-01-01T17:17:55.867Z,2.10
2018-01-01T17:20:22.982Z,2.40
2018-01-01T17:22:49.397Z,2.00
2018-01-01T17:25:15.938Z,2.90
2018-01-01T17:27:42.380Z,2.00
2018-01-01T17:30:09.540Z,2.27
2018-01-01T17:32:37.497Z,2.60
2018-01-01T17:35:04.618Z,1.87
2018-01-01T17:37:31.087Z,2.50
2018-01-01T17:39:57.520Z,2.20
2018-01-01T17:42:24.029Z,2.70
2018-01-01T17:44:50.481Z,2.00
2018-01-01T17:47:16.944Z,1.67
2018-01-01T17:49:44.160Z,2.20
2018-01-01T17:52:10.581Z,2.90
2018-01-01T17:54:37.092Z,2.30
2018-01-01T17:57:03.954Z,2.03
2018-01-01T17:59:30.432Z,2.33
2018-01-01T18:01:57.762Z,1.37
2018-01-01T18:04:24.167Z,1.53
2018-01-01T18:06:50.645Z,1.93
2018-01-01T18:09:17.056Z,1.30
2018-01-01T18:11:43.484Z,1.70
2018-01-01T18:14:10.628Z,1.83
2018-01-01T18:16:37.882Z,2.43
2018-01-01T18:19:04.300Z,1.30
2018-01-01T18:21:30.684Z,1.33
2018-01-01T18:23:57.934Z,1.10
2018-01-01T18:26:24.319Z,1.87
2018-01-01T18:28:51.463Z,1.43
2018-01-01T18:31:19.319Z,1.43
2018-01-01T18:34:01.454Z,1.93
2018-01-01T18:36:27.980Z,1.87
2018-01-01T18:38:54.371Z,2.23
2018-01-01T18:41:20.758Z,2.57
2018-01-01T18:43:47.433Z,1.63
2018-01-01T18:46:14.586Z,2.00
2018-01-01T18:48:40.956Z,2.40
2018-01-01T18:51:08.127Z,1.80
2018-01-01T18:53:34.562Z,2.27
2018-01-01T18:56:01.699Z,2.00
2018-01-01T18:58:43.078Z,2.27
2018-01-01T19:01:09.688Z,2.63
2018-01-01T19:03:36.890Z,2.17
2018-01-01T19:06:04.176Z,2.00
2018-01-01T19:08:31.338Z,1.90
2018-01-01T19:10:58.468Z,1.83
2018-01-01T19:13:24.864Z,3.03
2018-01-01T19:15:51.434Z,3.10
2018-01-01T19:18:17.866Z,4.03
2018-01-01T19:20:44.997Z,3.43
2018-01-01T19:23:11.352Z,4.60
2018-01-01T19:25:38.500Z,5.03
2018-01-01T19:28:05.637Z,7.03
2018-01-01T19:30:32.150Z,8.83
2018-01-01T19:32:59.286Z,10.50
2018-01-01T19:35:25.753Z,5.50
2018-01-01T19:37:52.188Z,4.80
2018-01-01T19:40:19.363Z,5.40
2018-01-01T19:42:46.546Z,21.50
2018-01-01T19:45:12.962Z,5.47
2018-01-01T19:47:46.421Z,6.43
2018-01-01T19:50:12.842Z,17.07
2018-01-01T19:52:39.311Z,14.23
2018-01-01T19:55:06.149Z,14.10
2018-01-01T19:57:32.543Z,19.83
2018-01-01T19:59:58.971Z,15.10
2018-01-01T20:02:25.436Z,11.80
2018-01-01T20:04:51.955Z,15.17
2018-01-01T20:07:18.382Z,9.87
2018-01-01T20:09:44.843Z,5.40
2018-01-01T20:12:12.083Z,15.83
2018-01-01T20:14:38.561Z,10.70
2018-01-01T20:17:05.392Z,4.13
2018-01-01T20:19:31.836Z,12.27
2018-01-01T20:21:58.372Z,16.00
2018-01-01T20:24:24.811Z,9.87
2018-01-01T20:26:51.287Z,6.83
2018-01-01T20:29:17.709Z,4.40
2018-01-01T20:31:44.270Z,4.70
2018-01-01T20:34:10.739Z,5.07
2018-01-01T20:36:37.219Z,6.40
2018-01-01T20:39:04.839Z,5.60
2018-01-01T20:41:31.331Z,4.70
2018-01-01T20:43:57.801Z,5.83
2018-01-01T20:46:24.956Z,5.90
2018-01-01T20:48:52.186Z,4.83
2018-01-01T20:51:19.479Z,5.10
2018-01-01T20:53:45.884Z,4.53
2018-01-01T20:56:12.333Z,3.90
2018-01-01T20:58:39.773Z,4.33
2018-01-01T21:01:06.301Z,4.77
2018-01-01T21:03:34.241Z,4.70
2018-01-01T21:06:01.464Z,5.13
2018-01-01T21:08:27.975Z,3.77
2018-01-01T21:10:54.435Z,3.77
2018-01-01T21:13:20.850Z,5.10
2018-01-01T21:15:48.056Z,5.20
2018-01-01T21:18:14.499Z,5.20
2018-01-01T21:20:42.421Z,4.37
2018-01-01T21:23:08.901Z,4.80
2018-01-01T21:25:35.339Z,4.40
2018-01-01T21:28:01.812Z,4.60
2018-01-01T21:30:28.307Z,3.57
2018-01-01T21:32:55.518Z,4.63
2018-01-01T21:35:21.972Z,11.80
2018-01-01T21:37:48.379Z,4.47
2018-01-01T21:40:15.563Z,13.67
2018-01-01T21:42:42.109Z,30.80
2018-01-01T21:45:08.541Z,4.47
2018-01-01T21:47:34.955Z,4.10
2018-01-01T21:50:03.033Z,3.00
2018-01-01T21:52:29.524Z,2.90
2018-01-01T21:54:55.944Z,2.90
2018-01-01T21:57:22.353Z,3.10
2018-01-01T21:59:48.787Z,2.43
2018-01-01T22:02:15.432Z,3.43
2018-01-01T22:04:41.869Z,3.03
2018-01-01T22:07:08.273Z,2.40
2018-01-01T22:09:34.768Z,2.30
2018-01-01T22:12:01.211Z,2.57
2018-01-01T22:14:27.639Z,1.97
2018-01-01T22:16:54.055Z,1.90
2018-01-01T22:19:20.483Z,2.80
2018-01-01T22:21:46.953Z,2.13
2018-01-01T22:24:13.599Z,3.30
2018-01-01T22:26:40.041Z,1.93
2018-01-01T22:29:07.242Z,3.77
2018-01-01T22:31:34.497Z,4.00
2018-01-01T22:34:00.915Z,5.10
2018-01-01T22:36:27.463Z,3.93
2018-01-01T22:38:53.898Z,5.00
2018-01-01T22:41:21.065Z,5.43
2018-01-01T22:43:48.237Z,6.43
2018-01-01T22:46:15.378Z,6.50
2018-01-01T22:48:42.913Z,7.17
2018-01-01T22:51:09.349Z,6.77
2018-01-01T22:53:37.356Z,6.73
2018-01-01T22:56:04.396Z,8.07
2018-01-01T22:58:30.839Z,7.97
2018-01-01T23:00:57.299Z,10.43
2018-01-01T23:03:25.210Z,9.27
2018-01-01T23:05:52.356Z,9.83
2018-01-01T23:08:19.525Z,9.40
2018-01-01T23:10:46.697Z,9.60
2018-01-01T23:13:13.904Z,7.70
2018-01-01T23:15:40.338Z,7.53
2018-01-01T23:18:07.010Z,7.53
2018-01-01T23:20:34.231Z,6.90
2018-01-01T23:23:01.382Z,6.07
2018-01-01T23:25:28.554Z,5.60
2018-01-01T23:27:55.753Z,6.23
2018-01-01T23:30:22.196Z,8.17
2018-01-01T23:32:48.626Z,7.07
2018-01-01T23:35:15.007Z,7.13
2018-01-01T23:37:41.440Z,6.60
2018-01-01T23:40:08.187Z,8.40
2018-01-01T23:42:34.616Z,5.60
2018-01-01T23:45:01.040Z,6.43
2018-01-01T23:47:27.540Z,7.33
2018-01-01T23:49:54.701Z,8.30
2018-01-01T23:52:21.164Z,7.90
2018-01-01T23:54:48.338Z,9.90
2018-01-01T23:57:15.478Z,9.57
2018-01-01T23:59:42.650Z,11.10
